createdAt,value
2022-09-29T00:00:40.056Z,4.75
2022-09-29T00:03:07.237Z,8.23
2022-09-29T00:05:34.056Z,5.32
2022-09-29T00:08:00.956Z,4.65
2022-09-29T00:10:27.702Z,7.00
2022-09-29T00:12:56.654Z,5.25
2022-09-29T00:15:23.349Z,7.80
2022-09-29T00:18:12.761Z,5.35
2022-09-29T00:20:41.644Z,5.90
2022-09-29T00:23:08.359Z,5.70
2022-09-29T00:25:37.258Z,6.25
2022-09-29T00:28:03.918Z,5.22
2022-09-29T00:30:35.210Z,6.57
2022-09-29T00:33:01.867Z,6.00
2022-09-29T00:35:28.512Z,6.88
2022-09-29T00:37:57.702Z,6.32
2022-09-29T00:40:24.403Z,6.22
2022-09-29T00:42:51.061Z,9.85
2022-09-29T00:45:21.490Z,7.28
2022-09-29T00:48:19.478Z,7.68
2022-09-29T00:50:54.515Z,8.20
2022-09-29T00:53:23.097Z,8.05
2022-09-29T00:56:03.373Z,7.20
2022-09-29T00:58:32.841Z,7.70
2022-09-29T01:00:59.897Z,7.10
2022-09-29T01:03:31.892Z,10.15
2022-09-29T01:06:02.820Z,9.93
2022-09-29T01:09:05.563Z,8.70
2022-09-29T01:11:32.640Z,8.80
2022-09-29T01:14:06.127Z,9.25
2022-09-29T01:16:34.892Z,10.98
2022-09-29T01:19:06.843Z,10.00
2022-09-29T01:21:42.228Z,8.70
2022-09-29T01:24:36.504Z,9.55
2022-09-29T01:27:33.534Z,9.75
2022-09-29T01:30:20.972Z,10.63
2022-09-29T01:33:12.297Z,9.93
2022-09-29T01:36:03.272Z,10.07
2022-09-29T01:38:56.742Z,10.85
2022-09-29T01:41:53.328Z,11.23
2022-09-29T01:44:29.187Z,10.85
2022-09-29T01:47:16.537Z,9.93
2022-09-29T01:49:53.240Z,10.00
2022-09-29T01:52:23.874Z,9.95
2022-09-29T01:54:50.571Z,12.15
2022-09-29T01:57:29.466Z,12.50
2022-09-29T02:00:10.183Z,10.00
2022-09-29T02:02:39.472Z,10.98
2022-09-29T02:05:13.548Z,14.30
2022-09-29T02:07:47.179Z,10.43
2022-09-29T02:10:29.896Z,11.88
2022-09-29T02:13:00.490Z,12.95
2022-09-29T02:15:32.304Z,11.27
2022-09-29T02:18:09.813Z,10.88
2022-09-29T02:20:39.042Z,9.90
2022-09-29T02:23:05.677Z,12.93
2022-09-29T02:25:37.882Z,13.60
2022-09-29T02:28:05.963Z,12.05
2022-09-29T02:30:33.507Z,13.68
2022-09-29T02:33:00.265Z,11.93
2022-09-29T02:35:51.261Z,11.90
2022-09-29T02:38:36.770Z,11.77
2022-09-29T02:41:27.832Z,10.93
2022-09-29T02:44:07.387Z,9.05
2022-09-29T02:46:34.016Z,11.25
2022-09-29T02:49:14.477Z,10.95
2022-09-29T02:52:08.614Z,10.18
2022-09-29T02:54:47.937Z,11.43
2022-09-29T02:57:34.499Z,24.27
2022-09-29T03:00:11.432Z,11.40
2022-09-29T03:02:40.067Z,9.57
2022-09-29T03:05:10.218Z,9.18
2022-09-29T03:07:40.037Z,12.07
2022-09-29T03:10:11.265Z,11.15
2022-09-29T03:12:38.077Z,8.85
2022-09-29T03:15:07.089Z,11.07
2022-09-29T03:17:34.194Z,13.65
2022-09-29T03:20:04.031Z,11.05
2022-09-29T03:22:31.183Z,11.77
2022-09-29T03:24:57.833Z,11.20
2022-09-29T03:27:27.002Z,10.18
2022-09-29T03:29:53.675Z,10.60
2022-09-29T03:32:20.336Z,9.55
2022-09-29T03:34:46.997Z,12.00
2022-09-29T03:37:16.186Z,10.38
2022-09-29T03:39:42.823Z,13.18
2022-09-29T03:42:09.531Z,10.95
2022-09-29T03:44:38.693Z,11.13
2022-09-29T03:47:05.417Z,11.70
2022-09-29T03:49:35.627Z,10.45
2022-09-29T03:52:02.332Z,11.45
2022-09-29T03:54:29.079Z,13.98
2022-09-29T03:56:55.749Z,13.07
2022-09-29T03:59:22.407Z,11.52
2022-09-29T04:01:49.099Z,11.35
2022-09-29T04:04:15.757Z,11.82
2022-09-29T04:06:42.405Z,11.57
2022-09-29T04:09:09.156Z,12.38
2022-09-29T04:11:35.888Z,9.43
2022-09-29T04:14:02.649Z,11.15
2022-09-29T04:16:29.366Z,10.90
2022-09-29T04:18:58.572Z,10.95
2022-09-29T04:21:25.198Z,10.93
2022-09-29T04:23:51.850Z,12.15
2022-09-29T04:26:20.566Z,9.88
2022-09-29T04:28:49.748Z,9.82
2022-09-29T04:31:16.518Z,11.48
2022-09-29T04:33:43.247Z,10.73
2022-09-29T04:36:09.974Z,12.02
2022-09-29T04:38:38.921Z,10.77
2022-09-29T04:41:05.749Z,14.27
2022-09-29T04:43:34.747Z,16.77
2022-09-29T04:46:11.241Z,11.38
2022-09-29T04:48:38.137Z,12.50
2022-09-29T04:51:05.923Z,12.85
2022-09-29T04:53:33.238Z,12.38
2022-09-29T04:56:07.257Z,12.43
2022-09-29T04:58:34.406Z,11.50
2022-09-29T05:01:14.322Z,11.07
2022-09-29T05:06:09.717Z,14.73
2022-09-29T05:08:36.646Z,10.32
2022-09-29T05:11:09.822Z,13.60
2022-09-29T05:13:37.673Z,14.52
2022-09-29T05:16:05.144Z,11.88
2022-09-29T05:18:33.497Z,11.80
2022-09-29T05:21:26.623Z,14.65
2022-09-29T05:23:53.126Z,17.60
2022-09-29T05:26:19.794Z,11.63
2022-09-29T05:28:50.196Z,15.93
2022-09-29T05:31:19.264Z,14.63
2022-09-29T05:33:46.034Z,13.63
2022-09-29T05:36:12.977Z,13.68
2022-09-29T05:38:40.285Z,13.30
2022-09-29T05:41:10.938Z,11.95
2022-09-29T05:43:40.873Z,10.77
2022-09-29T05:48:36.185Z,13.45
2022-09-29T05:51:15.004Z,14.15
2022-09-29T05:53:43.392Z,12.15
2022-09-29T05:56:15.230Z,12.68
2022-09-29T05:58:42.178Z,12.45
2022-09-29T06:01:10.504Z,13.75
2022-09-29T06:03:40.051Z,11.63
2022-09-29T06:06:18.892Z,16.20
2022-09-29T06:08:46.320Z,11.70
2022-09-29T06:11:25.233Z,14.18
2022-09-29T06:13:53.479Z,13.30
2022-09-29T06:16:23.365Z,11.98
2022-09-29T06:21:20.064Z,14.05
2022-09-29T06:23:50.214Z,12.18
2022-09-29T06:26:23.393Z,13.88
2022-09-29T06:28:50.989Z,11.98
2022-09-29T06:31:22.890Z,12.98
2022-09-29T06:33:52.062Z,11.93
2022-09-29T06:36:44.353Z,13.60
2022-09-29T06:39:13.935Z,10.68
2022-09-29T06:41:41.492Z,11.27
2022-09-29T06:44:08.237Z,12.63
2022-09-29T06:46:35.560Z,12.15
2022-09-29T06:49:02.349Z,13.85
2022-09-29T06:51:41.875Z,12.05
2022-09-29T06:54:16.543Z,14.82
2022-09-29T06:56:46.521Z,12.20
2022-09-29T06:59:13.292Z,14.65
2022-09-29T07:01:42.514Z,12.85
2022-09-29T07:04:09.803Z,12.82
2022-09-29T07:06:36.672Z,14.27
2022-09-29T07:09:03.563Z,10.88
2022-09-29T07:11:35.127Z,16.00
2022-09-29T07:14:01.887Z,13.20
2022-09-29T07:16:28.624Z,13.00
2022-09-29T07:18:55.344Z,14.05
2022-09-29T07:21:24.268Z,14.20
2022-09-29T07:23:51.020Z,12.63
2022-09-29T07:26:18.062Z,13.60
2022-09-29T07:28:46.800Z,14.63
2022-09-29T07:31:19.247Z,15.25
2022-09-29T07:33:47.869Z,13.63
2022-09-29T07:36:16.431Z,16.25
2022-09-29T07:38:47.179Z,12.98
2022-09-29T07:41:18.109Z,12.80
2022-09-29T07:43:44.791Z,14.00
2022-09-29T07:46:11.778Z,15.48
2022-09-29T07:48:39.090Z,15.68
2022-09-29T07:51:10.819Z,14.65
2022-09-29T07:53:37.936Z,13.45
2022-09-29T07:56:07.208Z,13.57
2022-09-29T07:58:34.471Z,11.50
2022-09-29T08:01:02.115Z,12.70
2022-09-29T08:03:30.095Z,11.50
2022-09-29T08:06:00.135Z,11.07
2022-09-29T08:08:27.303Z,11.75
2022-09-29T08:11:05.101Z,11.38
2022-09-29T08:13:36.251Z,12.70
2022-09-29T08:16:05.617Z,10.73
2022-09-29T08:18:33.824Z,13.05
2022-09-29T08:21:03.685Z,12.95
2022-09-29T08:23:33.979Z,15.18
2022-09-29T08:28:38.656Z,12.63
2022-09-29T08:31:07.286Z,12.02
2022-09-29T08:33:34.919Z,12.73
2022-09-29T08:36:06.264Z,13.02
2022-09-29T08:38:33.234Z,13.73
2022-09-29T08:41:06.736Z,12.50
2022-09-29T08:43:41.234Z,11.45
2022-09-29T08:46:33.283Z,17.50
2022-09-29T08:49:09.244Z,14.07
2022-09-29T08:51:48.694Z,12.55
2022-09-29T08:54:45.033Z,11.88
2022-09-29T08:57:20.207Z,13.82
2022-09-29T09:00:00.504Z,14.75
2022-09-29T09:02:47.735Z,9.77
2022-09-29T09:05:19.537Z,11.18
2022-09-29T09:07:51.937Z,12.73
2022-09-29T09:10:51.030Z,11.00
2022-09-29T09:13:52.852Z,10.67
2022-09-29T09:16:44.368Z,10.63
2022-09-29T09:19:38.674Z,9.95
2022-09-29T09:22:14.547Z,11.23
2022-09-29T09:24:59.227Z,10.75
2022-09-29T09:27:33.568Z,9.63
2022-09-29T09:30:20.867Z,8.63
2022-09-29T09:32:54.446Z,10.10
2022-09-29T09:35:58.557Z,9.18
2022-09-29T09:38:39.916Z,7.60
2022-09-29T09:41:08.443Z,7.20
2022-09-29T09:43:45.616Z,6.40
2022-09-29T09:46:49.966Z,7.63
2022-09-29T09:49:26.186Z,9.13
2022-09-29T09:52:15.537Z,9.18
2022-09-29T09:54:46.489Z,8.90
2022-09-29T09:57:43.639Z,10.98
2022-09-29T10:00:10.584Z,10.07
2022-09-29T10:02:49.554Z,8.88
2022-09-29T10:05:19.804Z,6.60
2022-09-29T10:07:49.041Z,7.97
2022-09-29T10:10:27.470Z,8.73
2022-09-29T10:13:03.317Z,6.63
2022-09-29T10:15:55.355Z,6.70
2022-09-29T10:18:30.958Z,7.88
2022-09-29T10:21:38.012Z,7.25
2022-09-29T10:24:08.623Z,5.45
2022-09-29T10:26:46.954Z,5.57
2022-09-29T10:29:43.020Z,7.45
2022-09-29T10:32:13.826Z,6.05
2022-09-29T10:34:51.890Z,6.10
2022-09-29T10:37:35.488Z,6.68
2022-09-29T10:40:08.063Z,8.02
2022-09-29T10:42:43.337Z,8.70
2022-09-29T10:45:21.970Z,4.95
2022-09-29T10:47:57.849Z,5.00
2022-09-29T10:50:52.329Z,4.55
2022-09-29T10:53:41.042Z,5.25
2022-09-29T10:56:19.537Z,5.00
2022-09-29T10:59:00.260Z,4.20
2022-09-29T11:01:33.259Z,3.65
2022-09-29T11:04:04.051Z,3.45
2022-09-29T11:06:43.006Z,4.97
2022-09-29T11:09:16.099Z,13.85
2022-09-29T11:11:51.098Z,4.68
2022-09-29T11:14:43.691Z,5.28
2022-09-29T11:17:27.221Z,2.95
2022-09-29T11:19:59.389Z,5.55
2022-09-29T11:22:54.423Z,5.20
2022-09-29T11:26:00.129Z,3.03
2022-09-29T11:28:41.583Z,4.65
2022-09-29T11:31:16.795Z,4.60
2022-09-29T11:34:16.859Z,2.15
2022-09-29T11:37:11.651Z,3.50
2022-09-29T11:40:16.206Z,1.70
2022-09-29T11:43:06.576Z,4.60
2022-09-29T11:45:56.479Z,2.70
2022-09-29T11:49:00.322Z,3.10
2022-09-29T11:52:01.215Z,4.25
2022-09-29T11:54:47.760Z,3.95
2022-09-29T11:57:42.012Z,5.43
2022-09-29T12:00:15.042Z,2.08
2022-09-29T12:03:17.454Z,1.77
2022-09-29T12:05:53.113Z,1.92
2022-09-29T12:08:23.298Z,3.15
2022-09-29T12:11:30.058Z,3.55
2022-09-29T12:13:56.151Z,1.70
2022-09-29T12:16:33.355Z,3.03
2022-09-29T12:19:05.234Z,1.77
2022-09-29T12:21:40.882Z,2.45
2022-09-29T12:24:21.599Z,1.83
2022-09-29T12:26:50.294Z,2.72
2022-09-29T12:29:38.643Z,1.83
2022-09-29T12:32:19.277Z,2.78
2022-09-29T12:34:54.195Z,4.07
2022-09-29T12:37:27.832Z,3.08
2022-09-29T12:40:04.412Z,1.90
2022-09-29T12:42:42.662Z,3.78
2022-09-29T12:45:23.634Z,2.20
2022-09-29T12:48:17.081Z,3.67
2022-09-29T12:51:09.674Z,2.13
2022-09-29T12:53:58.664Z,2.83
2022-09-29T12:56:32.755Z,2.73
2022-09-29T12:59:40.542Z,1.80
2022-09-29T13:02:49.425Z,4.50
2022-09-29T13:05:36.561Z,1.93
2022-09-29T13:08:31.277Z,2.17
2022-09-29T13:11:19.566Z,3.75
2022-09-29T13:14:11.924Z,3.38
2022-09-29T13:17:07.574Z,1.80
2022-09-29T13:19:58.434Z,3.60
2022-09-29T13:22:50.452Z,3.28
2022-09-29T13:25:29.140Z,2.47
2022-09-29T13:27:57.273Z,1.85
2022-09-29T13:30:31.240Z,1.15
2022-09-29T13:33:03.203Z,3.38
2022-09-29T13:35:42.684Z,3.00
2022-09-29T13:38:21.370Z,2.80
2022-09-29T13:41:15.305Z,3.67
2022-09-29T13:43:51.041Z,2.50
2022-09-29T13:46:32.394Z,2.92
2022-09-29T13:49:02.030Z,1.50
2022-09-29T13:51:40.394Z,1.42
2022-09-29T13:54:27.295Z,2.88
2022-09-29T13:57:23.783Z,1.65
2022-09-29T13:59:53.395Z,2.83
2022-09-29T14:02:43.779Z,0.88
2022-09-29T14:05:24.875Z,1.55
2022-09-29T14:08:17.447Z,2.72
2022-09-29T14:11:01.135Z,2.25
2022-09-29T14:13:59.414Z,2.90
2022-09-29T14:16:53.353Z,1.25
2022-09-29T14:19:41.675Z,2.72
2022-09-29T14:22:35.818Z,1.33
2022-09-29T14:25:08.840Z,2.88
2022-09-29T14:27:44.963Z,1.92
2022-09-29T14:30:36.831Z,3.63
2022-09-29T14:33:25.449Z,2.20
2022-09-29T14:36:04.072Z,1.77
2022-09-29T14:38:32.487Z,1.83
2022-09-29T14:41:05.747Z,1.20
2022-09-29T14:44:19.264Z,1.45
2022-09-29T14:47:07.716Z,2.00
2022-09-29T14:50:16.190Z,2.58
2022-09-29T14:52:57.141Z,4.70
2022-09-29T14:55:45.315Z,3.47
2022-09-29T14:58:23.932Z,0.90
2022-09-29T15:01:09.333Z,2.33
2022-09-29T15:03:42.334Z,1.50
2022-09-29T15:06:17.130Z,1.25
2022-09-29T15:08:55.878Z,0.98
2022-09-29T15:11:28.721Z,2.00
2022-09-29T15:13:56.849Z,0.82
2022-09-29T15:16:45.050Z,1.60
2022-09-29T15:19:55.292Z,0.93
2022-09-29T15:22:53.734Z,0.80
2022-09-29T15:25:29.772Z,1.20
2022-09-29T15:28:12.340Z,0.68
2022-09-29T15:30:39.638Z,2.13
2022-09-29T15:33:30.911Z,0.98
2022-09-29T15:36:05.236Z,0.52
2022-09-29T15:38:34.510Z,2.08
2022-09-29T15:41:07.943Z,1.52
2022-09-29T15:43:58.845Z,0.40
2022-09-29T15:46:25.523Z,0.60
2022-09-29T15:49:13.529Z,0.70
2022-09-29T15:51:41.009Z,1.17
2022-09-29T15:54:13.731Z,2.28
2022-09-29T15:56:59.522Z,1.40
2022-09-29T15:59:51.608Z,1.20
2022-09-29T16:03:02.985Z,5.10
2022-09-29T16:05:39.098Z,1.58
2022-09-29T16:08:22.086Z,1.17
2022-09-29T16:10:48.698Z,0.80
2022-09-29T16:13:21.477Z,0.70
2022-09-29T16:15:50.209Z,0.73
2022-09-29T16:18:29.739Z,3.28
2022-09-29T16:21:00.251Z,1.98
2022-09-29T16:23:29.438Z,2.33
2022-09-29T16:26:08.241Z,1.43
2022-09-29T16:28:37.195Z,1.40
2022-09-29T16:31:07.747Z,1.13
2022-09-29T16:33:35.624Z,3.88
2022-09-29T16:36:02.302Z,2.25
2022-09-29T16:38:33.144Z,2.88
2022-09-29T16:41:07.538Z,11.23
2022-09-29T16:43:35.116Z,3.40
2022-09-29T16:46:05.983Z,1.90
2022-09-29T16:48:42.625Z,1.17
2022-09-29T16:51:38.283Z,1.75
2022-09-29T16:54:05.841Z,1.25
2022-09-29T16:56:35.280Z,1.40
2022-09-29T16:59:18.178Z,1.25
2022-09-29T17:01:49.092Z,2.25
2022-09-29T17:04:15.916Z,1.20
2022-09-29T17:06:47.464Z,0.82
2022-09-29T17:09:25.561Z,1.55
2022-09-29T17:11:52.393Z,2.53
2022-09-29T17:14:19.026Z,4.43
2022-09-29T17:16:46.037Z,2.17
2022-09-29T17:19:15.198Z,2.65
2022-09-29T17:21:42.026Z,2.08
2022-09-29T17:24:11.101Z,2.03
2022-09-29T17:26:59.727Z,2.87
2022-09-29T17:29:26.514Z,3.10
2022-09-29T17:31:53.247Z,2.85
2022-09-29T17:34:28.696Z,3.88
2022-09-29T17:37:00.239Z,5.22
2022-09-29T17:39:29.447Z,3.13
2022-09-29T17:41:56.292Z,3.93
2022-09-29T17:44:33.331Z,4.22
2022-09-29T17:47:24.356Z,3.97
2022-09-29T17:49:52.111Z,4.75
2022-09-29T17:52:25.563Z,7.50
2022-09-29T17:54:54.505Z,6.15
2022-09-29T17:57:27.953Z,4.68
2022-09-29T18:00:00.133Z,4.15
2022-09-29T18:02:36.547Z,4.57
2022-09-29T18:05:03.403Z,5.47
2022-09-29T18:07:33.296Z,7.03
2022-09-29T18:12:29.518Z,6.60
2022-09-29T18:15:03.757Z,11.23
2022-09-29T18:17:30.396Z,10.23
2022-09-29T18:19:57.078Z,9.00
2022-09-29T18:22:26.231Z,12.35
2022-09-29T18:24:55.377Z,11.50
2022-09-29T18:27:24.638Z,10.27
2022-09-29T18:29:51.344Z,10.00
2022-09-29T18:32:20.569Z,10.07
2022-09-29T18:34:47.349Z,8.98
2022-09-29T18:37:21.369Z,8.68
2022-09-29T18:39:55.536Z,6.28
2022-09-29T18:42:22.475Z,7.95
2022-09-29T18:44:52.277Z,9.30
2022-09-29T18:47:28.682Z,5.20
2022-09-29T18:49:57.633Z,6.10
2022-09-29T18:52:27.418Z,6.00
2022-09-29T18:55:00.164Z,6.68
2022-09-29T18:57:26.886Z,5.72
2022-09-29T18:59:55.987Z,7.18
2022-09-29T19:02:28.544Z,7.97
2022-09-29T19:04:57.863Z,5.95
2022-09-29T19:07:24.584Z,7.95
2022-09-29T19:09:56.097Z,6.82
2022-09-29T19:12:29.297Z,8.07
2022-09-29T19:15:19.810Z,10.15
2022-09-29T19:17:51.261Z,13.30
2022-09-29T19:20:29.947Z,9.70
2022-09-29T19:22:58.674Z,6.65
2022-09-29T19:25:30.125Z,7.78
2022-09-29T19:28:00.533Z,7.50
2022-09-29T19:30:31.334Z,7.90
2022-09-29T19:33:02.802Z,9.38
2022-09-29T19:35:51.492Z,5.97
2022-09-29T19:38:22.189Z,7.80
2022-09-29T19:41:05.232Z,7.18
2022-09-29T19:43:54.652Z,5.90
2022-09-29T19:46:24.598Z,6.43
2022-09-29T19:51:47.765Z,6.90
2022-09-29T19:54:21.937Z,4.90
2022-09-29T19:57:01.279Z,6.80
2022-09-29T19:59:33.907Z,5.45
2022-09-29T20:02:26.377Z,5.32
2022-09-29T20:04:58.270Z,4.88
2022-09-29T20:07:32.318Z,5.22
2022-09-29T20:10:01.788Z,9.57
2022-09-29T20:12:33.223Z,6.07
2022-09-29T20:15:04.628Z,7.85
2022-09-29T20:17:36.440Z,5.20
2022-09-29T20:20:12.366Z,5.82
2022-09-29T20:22:46.054Z,4.55
2022-09-29T20:25:13.047Z,7.05
2022-09-29T20:27:51.769Z,5.72
2022-09-29T20:30:45.804Z,5.00
2022-09-29T20:33:23.820Z,4.18
2022-09-29T20:36:11.550Z,4.55
2022-09-29T20:38:50.793Z,5.45
2022-09-29T20:41:32.002Z,6.63
2022-09-29T20:44:09.405Z,5.85
2022-09-29T20:46:41.064Z,6.82
2022-09-29T20:49:09.777Z,4.72
2022-09-29T20:51:57.134Z,4.03
2022-09-29T20:54:23.908Z,5.90
2022-09-29T20:56:55.574Z,5.03
2022-09-29T20:59:24.287Z,4.10
2022-09-29T21:02:01.122Z,4.88
2022-09-29T21:04:30.980Z,5.20
2022-09-29T21:06:57.766Z,3.78
2022-09-29T21:09:24.626Z,4.80
2022-09-29T21:11:53.728Z,7.03
2022-09-29T21:14:24.166Z,5.40
2022-09-29T21:16:57.884Z,3.10
2022-09-29T21:19:26.604Z,4.90
2022-09-29T21:21:56.669Z,6.65
2022-09-29T21:26:52.139Z,4.55
2022-09-29T21:29:19.816Z,3.60
2022-09-29T21:31:54.577Z,5.50
2022-09-29T21:34:24.308Z,4.85
2022-09-29T21:36:51.238Z,5.82
2022-09-29T21:39:18.083Z,4.03
2022-09-29T21:41:45.948Z,5.47
2022-09-29T21:44:17.954Z,4.38
2022-09-29T21:46:47.861Z,5.30
2022-09-29T21:51:45.421Z,5.47
2022-09-29T21:54:15.022Z,4.37
2022-09-29T21:56:43.587Z,5.15
2022-09-29T21:59:11.589Z,5.47
2022-09-29T22:01:40.153Z,4.78
2022-09-29T22:04:07.809Z,5.80
2022-09-29T22:06:37.186Z,3.80
2022-09-29T22:09:08.076Z,3.63
2022-09-29T22:11:38.824Z,4.35
2022-09-29T22:14:06.659Z,4.32
2022-09-29T22:16:36.062Z,6.00
2022-09-29T22:21:54.041Z,6.60
2022-09-29T22:24:21.085Z,5.32
2022-09-29T22:26:47.875Z,3.47
2022-09-29T22:29:14.858Z,5.57
2022-09-29T22:31:44.308Z,3.90
2022-09-29T22:34:11.499Z,3.78
2022-09-29T22:36:40.759Z,4.95
2022-09-29T22:39:08.129Z,5.93
2022-09-29T22:41:36.750Z,5.95
2022-09-29T22:44:04.161Z,5.97
2022-09-29T22:46:31.835Z,4.30
2022-09-29T22:48:58.949Z,8.38
2022-09-29T22:51:26.004Z,5.18
2022-09-29T22:53:52.744Z,4.88
2022-09-29T22:56:21.972Z,7.22
2022-09-29T22:58:51.797Z,5.95
2022-09-29T23:01:21.178Z,5.68
2022-09-29T23:03:49.109Z,6.18
2022-09-29T23:06:15.916Z,3.92
2022-09-29T23:08:45.246Z,3.67
2022-09-29T23:11:19.863Z,6.00
2022-09-29T23:13:49.445Z,4.85
2022-09-29T23:16:17.201Z,6.78
2022-09-29T23:18:45.657Z,3.83
2022-09-29T23:21:14.828Z,4.40
2022-09-29T23:23:42.305Z,3.70
2022-09-29T23:26:09.287Z,3.75
2022-09-29T23:28:36.437Z,3.75
2022-09-29T23:31:07.450Z,5.70
2022-09-29T23:33:37.339Z,5.15
2022-09-29T23:36:15.337Z,5.10
2022-09-29T23:39:03.054Z,6.50
2022-09-29T23:41:31.064Z,4.25
2022-09-29T23:44:03.144Z,7.13
2022-09-29T23:46:33.514Z,5.68
2022-09-29T23:49:09.114Z,4.75
2022-09-29T23:51:38.057Z,6.40
2022-09-29T23:54:05.427Z,12.05
2022-09-29T23:56:32.250Z,5.63
2022-09-29T23:58:59.390Z,4.95
